createdAt,value
2022-09-21T00:01:42.148Z,99708.69
2022-09-21T00:04:11.026Z,99708.47
2022-09-21T00:06:39.663Z,99701.47
2022-09-21T00:09:09.501Z,99704.97
2022-09-21T00:11:39.604Z,99705.78
2022-09-21T00:14:12.264Z,99702.31
2022-09-21T00:16:42.382Z,99701.47
2022-09-21T00:19:12.226Z,99704.00
2022-09-21T00:21:41.241Z,99705.66
2022-09-21T00:24:10.196Z,99703.41
2022-09-21T00:26:40.361Z,99701.75
2022-09-21T00:29:09.016Z,99702.34
2022-09-21T00:31:37.736Z,99706.53
2022-09-21T00:34:07.958Z,99707.72
2022-09-21T00:36:36.770Z,99717.59
2022-09-21T00:39:05.651Z,99707.34
2022-09-21T00:41:36.072Z,99714.69
2022-09-21T00:44:32.196Z,99711.00
2022-09-21T00:47:10.887Z,99711.00
2022-09-21T00:49:41.790Z,99710.16
2022-09-21T00:52:14.922Z,99704.81
2022-09-21T00:54:50.508Z,99702.34
2022-09-21T00:57:22.212Z,99706.28
2022-09-21T00:59:57.030Z,99705.84
2022-09-21T01:02:26.780Z,99712.84
2022-09-21T01:04:56.778Z,99713.88
2022-09-21T01:07:32.805Z,99712.66
2022-09-21T01:10:06.619Z,99711.00
2022-09-21T01:12:56.493Z,99717.19
2022-09-21T01:15:40.820Z,99712.66
2022-09-21T01:18:21.547Z,99715.91
2022-09-21T01:21:18.720Z,99717.78
2022-09-21T01:24:38.895Z,99725.00
2022-09-21T01:27:58.654Z,99732.44
2022-09-21T01:30:32.657Z,99720.88
2022-09-21T01:33:12.461Z,99727.09
2022-09-21T01:35:49.044Z,99728.09
2022-09-21T01:38:26.975Z,99719.47
2022-09-21T01:41:02.037Z,99724.81
2022-09-21T01:43:36.943Z,99724.00
2022-09-21T01:46:17.716Z,99727.50
2022-09-21T01:48:51.453Z,99724.66
2022-09-21T01:51:23.830Z,99728.97
2022-09-21T01:53:58.089Z,99727.31
2022-09-21T01:56:34.147Z,99732.91
2022-09-21T01:59:14.605Z,99735.81
2022-09-21T02:01:52.742Z,99728.81
2022-09-21T02:04:21.507Z,99727.16
2022-09-21T02:06:52.359Z,99730.06
2022-09-21T02:09:21.897Z,99726.38
2022-09-21T02:11:50.449Z,99737.94
2022-09-21T02:14:25.236Z,99728.69
2022-09-21T02:17:16.222Z,99732.00
2022-09-21T02:19:54.462Z,99742.53
2022-09-21T02:22:34.467Z,99738.59
2022-09-21T02:25:12.096Z,99737.97
2022-09-21T02:27:51.806Z,99737.56
2022-09-21T02:30:23.572Z,99746.44
2022-09-21T02:33:07.445Z,99740.66
2022-09-21T02:35:47.045Z,99741.28
2022-09-21T02:38:26.939Z,99748.91
2022-09-21T02:41:07.202Z,99750.56
2022-09-21T02:43:42.637Z,99748.47
2022-09-21T02:46:18.685Z,99758.59
2022-09-21T02:48:53.405Z,99752.19
2022-09-21T02:51:31.052Z,99758.13
2022-09-21T02:54:04.246Z,99757.72
2022-09-21T02:56:33.888Z,99754.88
2022-09-21T02:59:06.762Z,99761.84
2022-09-21T03:01:37.272Z,99756.50
2022-09-21T03:04:07.326Z,99761.44
2022-09-21T03:06:36.009Z,99757.72
2022-09-21T03:09:04.978Z,99762.50
2022-09-21T03:11:36.184Z,99766.81
2022-09-21T03:14:08.893Z,99764.72
2022-09-21T03:16:37.792Z,99767.41
2022-09-21T03:19:08.100Z,99769.66
2022-09-21T03:21:42.329Z,99769.66
2022-09-21T03:24:13.063Z,99772.16
2022-09-21T03:26:43.473Z,99771.13
2022-09-21T03:29:12.063Z,99771.72
2022-09-21T03:31:40.723Z,99773.16
2022-09-21T03:34:11.469Z,99774.81
2022-09-21T03:36:40.129Z,99772.94
2022-09-21T03:39:08.712Z,99772.94
2022-09-21T03:41:38.788Z,99770.66
2022-09-21T03:44:07.416Z,99776.22
2022-09-21T03:46:36.417Z,99773.00
2022-09-21T03:49:05.074Z,99775.25
2022-09-21T03:51:35.088Z,99773.78
2022-09-21T03:54:03.741Z,99769.25
2022-09-21T03:56:32.414Z,99780.59
2022-09-21T03:59:01.009Z,99778.34
2022-09-21T04:01:29.867Z,99779.16
2022-09-21T04:03:58.448Z,99777.09
2022-09-21T04:06:27.010Z,99785.34
2022-09-21T04:08:57.457Z,99780.81
2022-09-21T04:11:26.144Z,99788.84
2022-09-21T04:13:57.114Z,99784.31
2022-09-21T04:16:26.162Z,99787.44
2022-09-21T04:18:54.936Z,99788.69
2022-09-21T04:21:24.126Z,99779.25
2022-09-21T04:23:53.225Z,99788.28
2022-09-21T04:26:32.898Z,99789.97
2022-09-21T04:29:02.492Z,99794.06
2022-09-21T04:31:31.778Z,99786.66
2022-09-21T04:34:00.503Z,99796.16
2022-09-21T04:36:36.415Z,99798.19
2022-09-21T04:39:14.926Z,99800.88
2022-09-21T04:41:45.527Z,99802.16
2022-09-21T04:44:14.315Z,99800.28
2022-09-21T04:46:43.581Z,99796.16
2022-09-21T04:49:12.381Z,99802.38
2022-09-21T04:51:41.388Z,99802.16
2022-09-21T04:54:10.246Z,99805.66
2022-09-21T04:56:39.002Z,99809.75
2022-09-21T04:59:09.595Z,99809.94
2022-09-21T05:01:38.801Z,99806.22
2022-09-21T05:04:07.692Z,99819.19
2022-09-21T05:06:37.940Z,99810.97
2022-09-21T05:09:24.579Z,99818.56
2022-09-21T05:11:53.499Z,99818.38
2022-09-21T05:14:23.697Z,99818.38
2022-09-21T05:16:52.289Z,99825.59
2022-09-21T05:19:20.861Z,99824.13
2022-09-21T05:21:49.370Z,99829.72
2022-09-21T05:24:17.944Z,99837.72
2022-09-21T05:26:46.573Z,99842.66
2022-09-21T05:29:16.019Z,99840.38
2022-09-21T05:31:54.574Z,99845.50
2022-09-21T05:35:02.489Z,99843.84
2022-09-21T05:37:51.781Z,99851.28
2022-09-21T05:40:21.552Z,99845.91
2022-09-21T05:42:51.086Z,99855.00
2022-09-21T05:45:23.200Z,99853.34
2022-09-21T05:48:12.495Z,99860.34
2022-09-21T05:50:54.643Z,99851.25
2022-09-21T05:54:00.445Z,99864.03
2022-09-21T05:56:49.033Z,99856.63
2022-09-21T05:59:45.199Z,99860.31
2022-09-21T06:02:33.481Z,99865.84
2022-09-21T06:05:11.743Z,99858.22
2022-09-21T06:07:41.632Z,99863.59
2022-09-21T06:10:13.095Z,99869.53
2022-09-21T06:12:41.957Z,99865.22
2022-09-21T06:15:14.936Z,99871.78
2022-09-21T06:17:44.264Z,99866.00
2022-09-21T06:20:14.247Z,99877.97
2022-09-21T06:22:42.835Z,99864.13
2022-09-21T06:25:11.731Z,99863.06
2022-09-21T06:27:40.344Z,99860.63
2022-09-21T06:30:10.200Z,99861.22
2022-09-21T06:32:38.806Z,99869.66
2022-09-21T06:35:08.691Z,99869.22
2022-09-21T06:37:40.258Z,99865.31
2022-09-21T06:40:10.816Z,99875.00
2022-09-21T06:42:39.480Z,99865.69
2022-09-21T06:45:09.957Z,99868.38
2022-09-21T06:47:38.624Z,99871.06
2022-09-21T06:50:08.581Z,99870.84
2022-09-21T06:52:40.623Z,99865.66
2022-09-21T06:55:10.880Z,99865.88
2022-09-21T06:57:40.119Z,99872.47
2022-09-21T07:00:12.302Z,99876.56
2022-09-21T07:02:45.670Z,99881.72
2022-09-21T07:05:14.963Z,99878.22
2022-09-21T07:07:44.997Z,99877.56
2022-09-21T07:10:18.525Z,99882.47
2022-09-21T07:12:51.333Z,99880.78
2022-09-21T07:15:21.461Z,99885.09
2022-09-21T07:17:52.302Z,99879.91
2022-09-21T07:20:21.457Z,99887.34
2022-09-21T07:22:51.719Z,99896.19
2022-09-21T07:25:20.358Z,99896.19
2022-09-21T07:27:48.954Z,99897.56
2022-09-21T07:30:17.722Z,99894.81
2022-09-21T07:32:46.303Z,99900.97
2022-09-21T07:35:15.143Z,99898.03
2022-09-21T07:37:43.728Z,99894.25
2022-09-21T07:40:13.988Z,99900.81
2022-09-21T07:42:44.924Z,99901.19
2022-09-21T07:45:13.540Z,99904.09
2022-09-21T07:47:42.148Z,99907.19
2022-09-21T07:50:11.737Z,99907.44
2022-09-21T07:52:40.407Z,99906.03
2022-09-21T07:55:09.616Z,99907.38
2022-09-21T07:57:56.940Z,99909.81
2022-09-21T08:00:25.974Z,99907.78
2022-09-21T08:02:54.577Z,99914.50
2022-09-21T08:05:23.182Z,99918.03
2022-09-21T08:07:53.033Z,99916.81
2022-09-21T08:10:21.805Z,99907.72
2022-09-21T08:12:52.083Z,99915.53
2022-09-21T08:15:46.750Z,99918.38
2022-09-21T08:18:09.524Z,99909.47
2022-09-21T08:20:38.192Z,99909.94
2022-09-21T08:23:06.792Z,99913.72
2022-09-21T08:25:35.499Z,99912.31
2022-09-21T08:28:09.659Z,99911.81
2022-09-21T08:30:38.777Z,99915.81
2022-09-21T08:33:08.373Z,99916.63
2022-09-21T08:35:37.982Z,99919.72
2022-09-21T08:38:06.643Z,99911.06
2022-09-21T08:40:36.063Z,99918.59
2022-09-21T08:43:12.213Z,99916.34
2022-09-21T08:45:45.831Z,99923.22
2022-09-21T08:48:27.707Z,99919.25
2022-09-21T08:51:03.016Z,99924.78
2022-09-21T08:53:36.149Z,99931.66
2022-09-21T08:56:05.770Z,99925.59
2022-09-21T08:58:40.724Z,99928.38
2022-09-21T09:01:32.085Z,99926.81
2022-09-21T09:04:31.031Z,99928.66
2022-09-21T09:07:18.324Z,99924.50
2022-09-21T09:10:19.234Z,99927.38
2022-09-21T09:13:09.007Z,99918.28
2022-09-21T09:16:01.414Z,99924.22
2022-09-21T09:18:44.871Z,99919.28
2022-09-21T09:21:29.937Z,99924.44
2022-09-21T09:24:07.364Z,99921.84
2022-09-21T09:26:45.225Z,99921.66
2022-09-21T09:29:26.351Z,99911.34
2022-09-21T09:31:59.293Z,99915.53
2022-09-21T09:34:34.026Z,99922.81
2022-09-21T09:37:12.809Z,99911.16
2022-09-21T09:39:45.383Z,99912.31
2022-09-21T09:42:43.369Z,99917.31
2022-09-21T09:45:37.029Z,99917.19
2022-09-21T09:48:27.778Z,99911.09
2022-09-21T09:50:56.408Z,99911.03
2022-09-21T09:53:28.171Z,99908.03
2022-09-21T09:56:00.414Z,99907.81
2022-09-21T09:58:42.844Z,99907.66
2022-09-21T10:01:38.473Z,99901.59
2022-09-21T10:04:12.085Z,99907.75
2022-09-21T10:06:46.176Z,99903.31
2022-09-21T10:09:29.005Z,99906.38
2022-09-21T10:12:06.836Z,99908.81
2022-09-21T10:14:38.326Z,99905.78
2022-09-21T10:17:09.587Z,99901.34
2022-09-21T10:19:39.761Z,99899.56
2022-09-21T10:22:08.611Z,99902.88
2022-09-21T10:24:40.817Z,99900.63
2022-09-21T10:27:17.190Z,99895.84
2022-09-21T10:29:48.302Z,99896.97
2022-09-21T10:32:24.836Z,99899.41
2022-09-21T10:35:21.053Z,99904.00
2022-09-21T10:38:09.594Z,99895.44
2022-09-21T10:40:40.559Z,99889.06
2022-09-21T10:43:27.265Z,99893.34
2022-09-21T10:45:59.174Z,99888.31
2022-09-21T10:48:30.326Z,99887.72
2022-09-21T10:51:00.494Z,99884.19
2022-09-21T10:53:32.313Z,99896.38
2022-09-21T10:56:15.571Z,99889.97
2022-09-21T10:59:14.694Z,99888.91
2022-09-21T11:01:47.102Z,99884.34
2022-09-21T11:04:25.047Z,99882.97
2022-09-21T11:07:03.723Z,99887.81
2022-09-21T11:09:40.882Z,99883.56
2022-09-21T11:12:34.199Z,99876.59
2022-09-21T11:15:17.473Z,99875.63
2022-09-21T11:17:50.895Z,99872.81
2022-09-21T11:20:38.091Z,99874.06
2022-09-21T11:23:31.985Z,99870.88
2022-09-21T11:26:15.138Z,99878.59
2022-09-21T11:28:54.684Z,99879.63
2022-09-21T11:31:53.878Z,99869.75
2022-09-21T11:34:47.030Z,99871.41
2022-09-21T11:37:33.153Z,99875.09
2022-09-21T11:40:30.650Z,99872.09
2022-09-21T11:43:23.675Z,99867.50
2022-09-21T11:46:07.598Z,99866.41
2022-09-21T11:48:56.325Z,99868.63
2022-09-21T11:51:55.963Z,99860.47
2022-09-21T11:55:11.258Z,99859.28
2022-09-21T11:57:54.893Z,99854.22
2022-09-21T12:00:26.693Z,99857.59
2022-09-21T12:03:31.371Z,99864.25
2022-09-21T12:06:25.204Z,99858.63
2022-09-21T12:09:21.304Z,99856.34
2022-09-21T12:12:04.240Z,99855.78
2022-09-21T12:14:45.222Z,99848.69
2022-09-21T12:17:25.024Z,99844.41
2022-09-21T12:20:08.514Z,99842.09
2022-09-21T12:22:42.596Z,99846.16
2022-09-21T12:25:19.571Z,99840.84
2022-09-21T12:27:56.993Z,99844.69
2022-09-21T12:30:27.801Z,99836.53
2022-09-21T12:33:03.195Z,99832.38
2022-09-21T12:35:44.181Z,99831.50
2022-09-21T12:38:20.228Z,99835.81
2022-09-21T12:40:56.753Z,99831.59
2022-09-21T12:43:37.999Z,99839.19
2022-09-21T12:46:16.673Z,99833.78
2022-09-21T12:48:45.723Z,99832.22
2022-09-21T12:51:23.039Z,99827.72
2022-09-21T12:53:54.769Z,99829.88
2022-09-21T12:56:42.228Z,99824.22
2022-09-21T12:59:30.842Z,99823.50
2022-09-21T13:02:18.544Z,99826.09
2022-09-21T13:05:02.769Z,99825.84
2022-09-21T13:08:06.521Z,99829.19
2022-09-21T13:10:54.734Z,99828.16
2022-09-21T13:13:34.345Z,99827.25
2022-09-21T13:16:05.649Z,99822.84
2022-09-21T13:18:39.328Z,99830.03
2022-09-21T13:21:20.562Z,99828.53
2022-09-21T13:23:57.109Z,99832.00
2022-09-21T13:26:40.568Z,99820.38
2022-09-21T13:29:40.888Z,99814.00
2022-09-21T13:32:25.671Z,99814.00
2022-09-21T13:35:54.786Z,99813.75
2022-09-21T13:38:29.747Z,99810.91
2022-09-21T13:41:01.587Z,99814.41
2022-09-21T13:44:06.089Z,99811.13
2022-09-21T13:46:58.319Z,99807.19
2022-09-21T13:49:43.430Z,99812.84
2022-09-21T13:52:35.304Z,99810.47
2022-09-21T13:55:21.984Z,99806.06
2022-09-21T13:57:56.380Z,99804.50
2022-09-21T14:00:37.779Z,99803.25
2022-09-21T14:03:22.360Z,99802.25
2022-09-21T14:05:55.537Z,99798.13
2022-09-21T14:08:34.134Z,99787.06
2022-09-21T14:11:09.074Z,99794.84
2022-09-21T14:13:42.177Z,99790.75
2022-09-21T14:16:55.982Z,99789.94
2022-09-21T14:20:30.273Z,99795.66
2022-09-21T14:23:32.251Z,99786.66
2022-09-21T14:26:04.482Z,99782.81
2022-09-21T14:28:43.840Z,99786.97
2022-09-21T14:31:23.779Z,99785.19
2022-09-21T14:33:57.985Z,99790.25
2022-09-21T14:36:42.008Z,99789.44
2022-09-21T14:39:22.594Z,99786.28
2022-09-21T14:41:57.539Z,99783.56
2022-09-21T14:44:31.226Z,99788.47
2022-09-21T14:47:28.686Z,99790.50
2022-09-21T14:50:26.485Z,99787.81
2022-09-21T14:53:35.721Z,99790.69
2022-09-21T14:56:23.820Z,99790.59
2022-09-21T14:59:16.741Z,99790.34
2022-09-21T15:02:00.393Z,99783.31
2022-09-21T15:04:50.212Z,99793.63
2022-09-21T15:07:55.433Z,99781.84
2022-09-21T15:10:53.024Z,99783.22
2022-09-21T15:13:48.843Z,99774.78
2022-09-21T15:16:38.122Z,99774.56
2022-09-21T15:19:22.209Z,99772.94
2022-09-21T15:21:53.858Z,99771.28
2022-09-21T15:24:28.497Z,99773.16
2022-09-21T15:27:10.271Z,99776.69
2022-09-21T15:29:45.064Z,99774.56
2022-09-21T15:32:29.158Z,99771.31
2022-09-21T15:35:04.105Z,99770.06
2022-09-21T15:37:39.711Z,99766.06
2022-09-21T15:40:25.010Z,99764.25
2022-09-21T15:43:04.694Z,99767.69
2022-09-21T15:45:51.474Z,99772.03
2022-09-21T15:48:22.126Z,99772.78
2022-09-21T15:50:58.411Z,99769.34
2022-09-21T15:53:31.929Z,99764.75
2022-09-21T15:56:02.239Z,99780.63
2022-09-21T15:58:40.573Z,99769.00
2022-09-21T16:01:16.160Z,99770.31
2022-09-21T16:03:45.448Z,99769.44
2022-09-21T16:06:28.124Z,99775.03
2022-09-21T16:08:58.181Z,99768.84
2022-09-21T16:11:37.875Z,99768.19
2022-09-21T16:14:30.409Z,99770.78
2022-09-21T16:17:28.529Z,99778.13
2022-09-21T16:20:21.304Z,99782.56
2022-09-21T16:22:55.569Z,99782.63
2022-09-21T16:25:34.293Z,99779.22
2022-09-21T16:28:07.201Z,99781.03
2022-09-21T16:30:47.001Z,99782.34
2022-09-21T16:33:44.665Z,99782.06
2022-09-21T16:36:41.934Z,99789.47
2022-09-21T16:39:15.540Z,99789.25
2022-09-21T16:42:00.290Z,99786.09
2022-09-21T16:44:31.590Z,99791.84
2022-09-21T16:47:04.454Z,99797.00
2022-09-21T16:49:37.396Z,99791.53
2022-09-21T16:52:07.720Z,99791.75
2022-09-21T16:54:38.636Z,99795.38
2022-09-21T16:57:12.407Z,99799.47
2022-09-21T16:59:45.741Z,99797.84
2022-09-21T17:02:16.213Z,99792.78
2022-09-21T17:04:48.040Z,99792.47
2022-09-21T17:07:19.085Z,99798.28
2022-09-21T17:09:48.816Z,99801.91
2022-09-21T17:12:20.461Z,99802.84
2022-09-21T17:14:50.372Z,99797.41
2022-09-21T17:17:24.959Z,99804.06
2022-09-21T17:19:59.362Z,99802.63
2022-09-21T17:22:30.487Z,99810.69
2022-09-21T17:24:59.759Z,99808.66
2022-09-21T17:27:29.352Z,99806.13
2022-09-21T17:30:03.884Z,99802.69
2022-09-21T17:32:38.451Z,99805.94
2022-09-21T17:35:19.046Z,99810.03
2022-09-21T17:37:49.967Z,99809.66
2022-09-21T17:40:23.378Z,99814.44
2022-09-21T17:42:55.608Z,99814.75
2022-09-21T17:45:38.916Z,99809.81
2022-09-21T17:48:19.129Z,99825.38
2022-09-21T17:50:51.230Z,99822.41
2022-09-21T17:53:37.481Z,99825.94
2022-09-21T17:56:33.036Z,99826.88
2022-09-21T17:59:06.031Z,99830.09
2022-09-21T18:01:39.791Z,99822.47
2022-09-21T18:04:11.725Z,99829.06
2022-09-21T18:06:43.267Z,99823.09
2022-09-21T18:09:13.854Z,99834.56
2022-09-21T18:12:02.479Z,99842.03
2022-09-21T18:14:48.574Z,99837.50
2022-09-21T18:17:41.159Z,99837.53
2022-09-21T18:20:30.959Z,99843.72
2022-09-21T18:23:15.688Z,99844.78
2022-09-21T18:25:50.240Z,99843.25
2022-09-21T18:28:35.747Z,99839.88
2022-09-21T18:31:31.051Z,99856.34
2022-09-21T18:34:30.014Z,99851.41
2022-09-21T18:37:13.843Z,99849.78
2022-09-21T18:40:00.029Z,99853.50
2022-09-21T18:42:42.565Z,99846.50
2022-09-21T18:45:45.180Z,99851.53
2022-09-21T18:48:34.128Z,99851.09
2022-09-21T18:51:28.056Z,99856.06
2022-09-21T18:54:00.420Z,99853.88
2022-09-21T18:56:37.551Z,99850.38
2022-09-21T18:59:07.849Z,99858.31
2022-09-21T19:01:37.754Z,99855.94
2022-09-21T19:04:07.880Z,99853.41
2022-09-21T19:06:47.268Z,99853.41
2022-09-21T19:09:45.917Z,99845.50
2022-09-21T19:12:49.193Z,99843.44
2022-09-21T19:15:48.688Z,99846.53
2022-09-21T19:18:31.161Z,99845.09
2022-09-21T19:21:41.797Z,99844.09
2022-09-21T19:24:25.513Z,99836.22
2022-09-21T19:27:10.218Z,99839.00
2022-09-21T19:29:56.159Z,99839.66
2022-09-21T19:32:38.363Z,99852.47
2022-09-21T19:35:24.825Z,99848.81
2022-09-21T19:37:55.980Z,99849.22
2022-09-21T19:40:28.399Z,99843.25
2022-09-21T19:43:27.434Z,99853.53
2022-09-21T19:46:20.091Z,99846.78
2022-09-21T19:48:51.550Z,99845.56
2022-09-21T19:51:35.108Z,99849.97
2022-09-21T19:54:31.593Z,99848.59
2022-09-21T19:57:18.888Z,99849.28
2022-09-21T19:59:49.329Z,99848.84
2022-09-21T20:02:28.770Z,99847.78
2022-09-21T20:05:02.985Z,99847.56
2022-09-21T20:07:45.626Z,99846.06
2022-09-21T20:10:42.165Z,99847.38
2022-09-21T20:13:31.242Z,99845.56
2022-09-21T20:16:19.182Z,99855.69
2022-09-21T20:18:59.006Z,99849.34
2022-09-21T20:21:39.674Z,99844.59
2022-09-21T20:24:22.351Z,99844.56
2022-09-21T20:26:52.766Z,99839.59
2022-09-21T20:29:23.211Z,99839.16
2022-09-21T20:31:54.062Z,99846.56
2022-09-21T20:34:24.093Z,99846.59
2022-09-21T20:36:52.694Z,99844.16
2022-09-21T20:39:21.237Z,99837.19
2022-09-21T20:41:49.970Z,99850.00
2022-09-21T20:44:18.664Z,99847.94
2022-09-21T20:46:47.250Z,99842.00
2022-09-21T20:49:16.213Z,99844.25
2022-09-21T20:51:46.272Z,99845.47
2022-09-21T20:54:14.934Z,99845.91
2022-09-21T20:56:43.513Z,99838.50
2022-09-21T20:59:12.233Z,99844.72
2022-09-21T21:01:41.247Z,99846.53
2022-09-21T21:04:09.940Z,99848.63
2022-09-21T21:06:38.596Z,99845.34
2022-09-21T21:09:08.572Z,99840.63
2022-09-21T21:11:37.161Z,99842.06
2022-09-21T21:14:05.747Z,99839.78
2022-09-21T21:16:34.695Z,99843.50
2022-09-21T21:19:03.306Z,99833.22
2022-09-21T21:21:31.955Z,99839.41
2022-09-21T21:24:18.527Z,99834.47
2022-09-21T21:27:01.864Z,99836.94
2022-09-21T21:29:31.242Z,99839.97
2022-09-21T21:32:00.828Z,99838.28
2022-09-21T21:34:29.634Z,99832.94
2022-09-21T21:36:58.464Z,99834.41
2022-09-21T21:39:27.323Z,99832.75
2022-09-21T21:41:57.826Z,99820.41
2022-09-21T21:44:26.624Z,99821.25
2022-09-21T21:47:02.830Z,99829.72
2022-09-21T21:49:43.967Z,99825.59
2022-09-21T21:52:13.301Z,99826.44
2022-09-21T21:54:42.020Z,99826.84
2022-09-21T21:57:12.191Z,99827.03
2022-09-21T21:59:40.854Z,99827.03
2022-09-21T22:02:10.291Z,99823.50
2022-09-21T22:04:38.923Z,99822.44
2022-09-21T22:07:07.636Z,99819.97
2022-09-21T22:09:36.153Z,99818.53
2022-09-21T22:12:04.994Z,99818.09
2022-09-21T22:14:35.009Z,99814.19
2022-09-21T22:17:03.825Z,99814.19
2022-09-21T22:19:33.033Z,99812.31
2022-09-21T22:22:01.691Z,99812.31
2022-09-21T22:24:30.341Z,99811.28
2022-09-21T22:26:59.066Z,99804.28
2022-09-21T22:29:27.799Z,99800.56
2022-09-21T22:31:57.939Z,99798.94
2022-09-21T22:34:26.724Z,99803.25
2022-09-21T22:36:56.498Z,99811.06
2022-09-21T22:39:25.121Z,99803.84
2022-09-21T22:41:53.860Z,99808.38
2022-09-21T22:44:22.439Z,99800.56
2022-09-21T22:46:51.038Z,99803.84
2022-09-21T22:49:20.984Z,99807.16
2022-09-21T22:51:49.570Z,99806.72
2022-09-21T22:54:18.164Z,99802.19
2022-09-21T22:56:46.766Z,99796.63
2022-09-21T22:59:15.316Z,99794.38
2022-09-21T23:01:44.811Z,99803.00
2022-09-21T23:04:14.962Z,99796.44
2022-09-21T23:06:46.872Z,99798.31
2022-09-21T23:09:19.686Z,99795.22
2022-09-21T23:11:53.288Z,99798.50
2022-09-21T23:14:24.111Z,99802.88
2022-09-21T23:16:53.215Z,99797.72
2022-09-21T23:19:22.037Z,99795.06
2022-09-21T23:21:52.991Z,99798.16
2022-09-21T23:24:22.219Z,99797.09
2022-09-21T23:26:51.802Z,99804.72
2022-09-21T23:29:20.653Z,99800.84
2022-09-21T23:31:49.261Z,99803.50
2022-09-21T23:34:18.085Z,99799.81
2022-09-21T23:36:47.169Z,99796.09
2022-09-21T23:39:17.689Z,99794.63
2022-09-21T23:41:46.628Z,99796.88
2022-09-21T23:44:15.401Z,99791.13
2022-09-21T23:46:44.267Z,99797.94
2022-09-21T23:49:13.047Z,99802.69
2022-09-21T23:51:42.418Z,99809.28
2022-09-21T23:54:11.082Z,99805.75
2022-09-21T23:56:41.084Z,99812.97
2022-09-21T23:59:11.125Z,99802.28
